Time;durP1;ratioP1;P1;durP2;ratioP2;P2;SDS_P1;SDS_P2;PMS_P1;PMS_P2;Temp;Humidity;BMP_temperature;BMP_pressure;BME280_temperature;BME280_humidity;BME280_pressure;Samples;Min_cycle;Max_cycle;Signal;HPM_P1;HPM_P2
2021/06/05 00:01:38;;;;;;;22.20;20.30;;;21.10;99.90;;;;;;5050958;28;20251;-76
2021/06/05 00:04:05;;;;;;;21.50;19.50;;;21.10;99.90;;;;;;5051857;28;20853;-76
2021/06/05 00:06:31;;;;;;;21.80;20.00;;;21.10;99.90;;;;;;5050731;28;20404;-76
2021/06/05 00:08:57;;;;;;;23.13;21.03;;;21.10;99.90;;;;;;5051738;28;20793;-76
2021/06/05 00:11:26;;;;;;;22.67;20.53;;;21.10;99.90;;;;;;5051033;28;20777;-76
2021/06/05 00:13:56;;;;;;;23.53;21.20;;;21.10;99.90;;;;;;5051710;28;20420;-76
2021/06/05 00:16:32;;;;;;;22.03;20.20;;;21.10;99.90;;;;;;5050520;28;20825;-76
2021/06/05 00:18:58;;;;;;;23.63;21.63;;;21.10;99.90;;;;;;5051760;28;20412;-76
2021/06/05 00:21:25;;;;;;;24.43;22.03;;;21.10;99.90;;;;;;5050374;28;20479;-76
2021/06/05 00:23:51;;;;;;;25.07;22.70;;;21.00;99.90;;;;;;5051249;28;20219;-76
2021/06/05 00:26:17;;;;;;;24.57;22.13;;;21.00;99.90;;;;;;5051086;28;20412;-75
2021/06/05 00:28:43;;;;;;;24.03;21.87;;;21.00;99.90;;;;;;5051431;28;20530;-76
2021/06/05 00:31:09;;;;;;;24.97;22.53;;;21.00;99.90;;;;;;5051593;28;20423;-76
2021/06/05 00:33:36;;;;;;;23.63;21.33;;;21.00;99.90;;;;;;5051044;28;20181;-76
2021/06/05 00:36:04;;;;;;;24.77;22.40;;;21.00;99.90;;;;;;5051566;28;20265;-76
2021/06/05 00:38:30;;;;;;;24.63;22.43;;;20.90;99.90;;;;;;5052250;28;20396;-76
2021/06/05 00:40:58;;;;;;;23.40;21.20;;;20.90;99.90;;;;;;5036983;28;20521;-76
2021/06/05 00:43:27;;;;;;;24.10;21.80;;;20.90;99.90;;;;;;5054385;28;20245;-76
2021/06/05 00:45:53;;;;;;;23.20;21.03;;;20.90;99.90;;;;;;5037556;28;20774;-76
2021/06/05 00:48:21;;;;;;;23.10;21.10;;;20.80;99.90;;;;;;5054283;28;20412;-76
2021/06/05 00:50:50;;;;;;;23.20;21.10;;;20.80;99.90;;;;;;5055055;28;20181;-76
2021/06/05 00:53:17;;;;;;;24.00;21.50;;;20.80;99.90;;;;;;5054240;28;20408;-76
2021/06/05 00:55:52;;;;;;;25.07;22.47;;;20.80;99.90;;;;;;5055149;28;20423;-76
2021/06/05 00:58:19;;;;;;;25.57;22.87;;;20.80;99.90;;;;;;5054197;28;20396;-76
2021/06/05 01:00:50;;;;;;;24.93;22.53;;;20.80;99.90;;;;;;5054813;28;20451;-76
2021/06/05 01:03:16;;;;;;;24.70;22.30;;;20.80;99.90;;;;;;5054283;28;20446;-76
2021/06/05 01:05:45;;;;;;;23.47;20.73;;;20.80;99.90;;;;;;5054809;28;20400;-76
2021/06/05 01:08:16;;;;;;;23.40;20.80;;;20.80;99.90;;;;;;5054792;28;20413;-76
2021/06/05 01:10:44;;;;;;;24.10;21.60;;;20.80;99.90;;;;;;5054857;28;20421;-75
2021/06/05 01:13:37;;;;;;;23.30;21.20;;;20.80;99.90;;;;;;5054381;28;20771;-76
2021/06/05 01:16:07;;;;;;;22.97;20.80;;;20.80;99.90;;;;;;5054486;28;20396;-76
2021/06/05 01:19:21;;;;;;;22.73;20.47;;;20.80;99.90;;;;;;5053585;28;20409;-76
2021/06/05 01:22:04;;;;;;;22.67;20.57;;;20.80;99.90;;;;;;5008107;28;20471;-76
2021/06/05 01:24:58;;;;;;;23.67;21.23;;;20.80;99.90;;;;;;5053687;28;20820;-76
2021/06/05 01:27:29;;;;;;;21.23;19.13;;;20.80;99.90;;;;;;5053756;28;20388;-76
2021/06/05 01:29:59;;;;;;;22.60;20.50;;;20.80;99.90;;;;;;5054197;28;20389;-76
2021/06/05 01:32:27;;;;;;;22.77;20.47;;;20.80;99.90;;;;;;5053562;28;20757;-76
2021/06/05 01:34:56;;;;;;;25.80;19.97;;;20.80;99.90;;;;;;5054227;28;20453;-76
2021/06/05 01:37:23;;;;;;;24.57;20.50;;;20.70;99.90;;;;;;5053419;28;20454;-76
2021/06/05 01:39:52;;;;;;;25.03;21.93;;;20.70;99.90;;;;;;5053999;28;20403;-76
2021/06/05 01:42:25;;;;;;;26.80;24.03;;;20.60;99.90;;;;;;5053503;28;20918;-76
2021/06/05 01:44:54;;;;;;;25.57;22.97;;;20.60;99.90;;;;;;5054113;28;20524;-76
2021/06/05 01:47:22;;;;;;;25.57;22.40;;;20.50;99.90;;;;;;5053279;28;20898;-76
2021/06/05 01:49:48;;;;;;;25.43;22.80;;;20.50;99.90;;;;;;5053510;28;20892;-76
2021/06/05 01:52:21;;;;;;;26.10;22.37;;;20.50;99.90;;;;;;5053792;28;20416;-76
2021/06/05 01:54:53;;;;;;;25.03;22.57;;;20.40;99.90;;;;;;5036277;28;20827;-76
2021/06/05 01:57:23;;;;;;;24.53;22.23;;;20.40;99.90;;;;;;5053258;28;20400;-76
2021/06/05 01:59:49;;;;;;;23.70;21.47;;;20.40;99.90;;;;;;5053944;28;20475;-76
2021/06/05 02:02:14;;;;;;;48.73;23.43;;;20.40;99.90;;;;;;5053635;28;21085;-75
2021/06/05 02:04:40;;;;;;;45.17;25.80;;;20.40;99.90;;;;;;5052848;28;20169;-76
2021/06/05 02:07:08;;;;;;;27.67;24.70;;;20.40;99.90;;;;;;5053640;28;20243;-76
2021/06/05 02:09:34;;;;;;;26.07;23.50;;;20.30;99.90;;;;;;5052413;28;20244;-76
2021/06/05 02:12:09;;;;;;;26.53;23.93;;;20.30;99.90;;;;;;5053466;28;20416;-76
2021/06/05 02:14:40;;;;;;;25.60;23.10;;;20.30;99.90;;;;;;5034970;28;20392;-76
2021/06/05 02:17:09;;;;;;;30.13;22.93;;;20.30;99.90;;;;;;5053449;28;20456;-76
2021/06/05 02:19:45;;;;;;;25.30;22.60;;;20.40;99.90;;;;;;5052302;28;20424;-76
2021/06/05 02:22:16;;;;;;;25.33;22.83;;;20.40;99.90;;;;;;5053224;28;20462;-76
2021/06/05 02:24:50;;;;;;;25.27;22.03;;;20.40;99.90;;;;;;5052578;28;20424;-76
2021/06/05 02:27:20;;;;;;;24.27;21.87;;;20.40;99.90;;;;;;5053098;28;20432;-76
2021/06/05 02:29:47;;;;;;;23.80;21.40;;;20.40;99.90;;;;;;5035210;28;20408;-76
2021/06/05 02:32:15;;;;;;;23.73;21.53;;;20.40;99.90;;;;;;5053172;28;20412;-76
2021/06/05 02:34:46;;;;;;;23.77;21.43;;;20.40;99.90;;;;;;5052342;28;20419;-76
2021/06/05 02:37:17;;;;;;;22.63;20.63;;;20.50;99.90;;;;;;5053174;28;20889;-76
2021/06/05 02:39:43;;;;;;;20.30;18.30;;;20.50;99.90;;;;;;5052266;28;20403;-75
2021/06/05 02:42:19;;;;;;;20.30;18.37;;;20.50;99.90;;;;;;5052910;28;20846;-76
2021/06/05 02:44:48;;;;;;;18.70;17.03;;;20.50;99.90;;;;;;5052305;28;20408;-75
2021/06/05 02:47:16;;;;;;;17.43;15.83;;;20.50;99.90;;;;;;5035156;28;20404;-76
2021/06/05 02:49:43;;;;;;;16.70;15.30;;;20.50;99.90;;;;;;5050963;28;20412;-76
2021/06/05 02:52:08;;;;;;;16.43;15.07;;;20.50;99.90;;;;;;5052505;28;20503;-76
2021/06/05 02:54:35;;;;;;;17.07;15.77;;;20.50;99.90;;;;;;5051941;28;20996;-76
2021/06/05 02:57:04;;;;;;;16.40;15.10;;;20.50;99.90;;;;;;5052672;28;20173;-75
2021/06/05 02:59:30;;;;;;;16.53;15.23;;;20.50;99.90;;;;;;5051560;28;20419;-76
2021/06/05 03:01:56;;;;;;;17.00;15.50;;;20.40;99.90;;;;;;5051819;28;20440;-76
2021/06/05 03:04:23;;;;;;;18.03;16.43;;;20.50;99.90;;;;;;5051775;28;20188;-76
2021/06/05 03:06:49;;;;;;;17.13;15.63;;;20.50;99.90;;;;;;5052267;28;20888;-75
2021/06/05 03:09:16;;;;;;;18.13;16.63;;;20.40;99.90;;;;;;5052520;28;20967;-76
2021/06/05 03:11:46;;;;;;;18.47;16.70;;;20.50;99.90;;;;;;5051307;28;21059;-76
2021/06/05 03:14:13;;;;;;;19.97;18.27;;;20.40;99.90;;;;;;5052396;28;20837;-76
2021/06/05 03:16:39;;;;;;;18.80;17.20;;;20.40;99.90;;;;;;5051253;28;20463;-76
2021/06/05 03:19:06;;;;;;;22.10;20.00;;;20.40;99.90;;;;;;5052104;28;20421;-76
2021/06/05 03:21:31;;;;;;;21.67;19.47;;;20.40;99.90;;;;;;5051415;28;20529;-75
2021/06/05 03:23:57;;;;;;;22.83;20.63;;;20.40;99.90;;;;;;5052401;28;20404;-76
2021/06/05 03:26:23;;;;;;;23.13;20.83;;;20.40;99.90;;;;;;5051456;28;20397;-76
2021/06/05 03:28:50;;;;;;;22.83;20.77;;;20.40;99.90;;;;;;5051882;28;20474;-76
2021/06/05 03:31:19;;;;;;;23.50;21.00;;;20.40;99.90;;;;;;5052236;28;20260;-76
2021/06/05 03:33:46;;;;;;;22.60;20.20;;;20.40;99.90;;;;;;5051113;28;20405;-76
2021/06/05 03:36:12;;;;;;;23.57;21.20;;;20.40;99.90;;;;;;5051903;28;20412;-76
2021/06/05 03:38:41;;;;;;;23.47;20.97;;;20.40;99.90;;;;;;5051350;28;20745;-76
2021/06/05 03:41:08;;;;;;;24.43;21.93;;;20.50;99.90;;;;;;5052383;28;20456;-76
2021/06/05 03:43:34;;;;;;;24.60;22.10;;;20.50;99.90;;;;;;5051031;28;20823;-76
2021/06/05 03:45:59;;;;;;;24.60;22.20;;;20.50;99.90;;;;;;5052139;28;20441;-76
2021/06/05 03:48:25;;;;;;;24.87;22.37;;;20.50;99.90;;;;;;5051105;28;20177;-76
2021/06/05 03:50:53;;;;;;;25.37;22.77;;;20.50;99.90;;;;;;5052251;28;20272;-76
2021/06/05 03:53:21;;;;;;;23.00;20.70;;;20.50;99.90;;;;;;5052084;28;20416;-76
2021/06/05 03:55:48;;;;;;;24.93;22.37;;;20.50;99.90;;;;;;5033531;28;20458;-76
2021/06/05 03:58:14;;;;;;;26.37;23.50;;;20.50;99.90;;;;;;5052000;28;20473;-75
2021/06/05 04:00:43;;;;;;;26.50;23.60;;;20.50;99.90;;;;;;5050551;28;21017;-76
2021/06/05 04:03:10;;;;;;;30.33;24.77;;;20.50;99.90;;;;;;5051927;28;20174;-76
2021/06/05 04:05:37;;;;;;;28.63;24.90;;;20.50;99.90;;;;;;5051057;28;20400;-76
2021/06/05 04:08:04;;;;;;;25.67;22.83;;;20.50;99.90;;;;;;5051855;28;20400;-76
2021/06/05 04:10:30;;;;;;;24.60;22.00;;;20.50;99.90;;;;;;5050888;28;20766;-76
2021/06/05 04:12:59;;;;;;;25.27;22.73;;;20.50;99.90;;;;;;5054038;28;20965;-76
2021/06/05 04:15:27;;;;;;;24.73;22.33;;;20.50;99.90;;;;;;5037557;28;20431;-76
2021/06/05 04:18:11;;;;;;;24.43;22.10;;;20.50;99.90;;;;;;5055365;28;20481;-76
2021/06/05 04:20:39;;;;;;;23.47;21.17;;;20.60;99.90;;;;;;5055059;28;20485;-76
2021/06/05 04:23:06;;;;;;;22.90;20.20;;;20.60;99.90;;;;;;5055511;28;20419;-76
2021/06/05 04:25:32;;;;;;;25.10;20.80;;;20.50;99.90;;;;;;5054754;28;20398;-76
2021/06/05 04:27:59;;;;;;;22.13;19.10;;;20.60;99.90;;;;;;5055594;28;20465;-75
2021/06/05 04:30:27;;;;;;;20.87;18.77;;;20.50;99.90;;;;;;5055398;28;20412;-76
2021/06/05 04:32:53;;;;;;;26.60;20.90;;;20.60;99.90;;;;;;5055070;28;20503;-76
2021/06/05 04:35:19;;;;;;;26.20;21.30;;;20.60;99.90;;;;;;5055083;28;20414;-76
2021/06/05 04:37:46;;;;;;;25.70;20.07;;;20.60;99.90;;;;;;5054576;28;20418;-76
2021/06/05 04:40:12;;;;;;;30.60;22.40;;;20.60;99.90;;;;;;5055237;28;20495;-76
2021/06/05 04:42:39;;;;;;;25.80;20.87;;;20.60;99.90;;;;;;5054479;28;20416;-76
2021/06/05 04:45:06;;;;;;;25.57;20.63;;;20.60;99.90;;;;;;5037326;28;20416;-76
2021/06/05 04:47:32;;;;;;;28.30;23.23;;;20.60;99.90;;;;;;5054318;28;20397;-76
2021/06/05 04:49:58;;;;;;;28.63;23.30;;;20.60;99.90;;;;;;5055383;28;20462;-76
2021/06/05 04:52:24;;;;;;;31.50;23.40;;;20.60;99.90;;;;;;5054866;28;20174;-76
2021/06/05 04:54:51;;;;;;;30.00;23.73;;;20.60;99.90;;;;;;5054214;28;20405;-76
2021/06/05 04:57:17;;;;;;;30.60;22.73;;;20.60;99.90;;;;;;5054977;28;20904;-76
2021/06/05 04:59:42;;;;;;;30.23;24.43;;;20.60;99.90;;;;;;5054065;28;20412;-76
2021/06/05 05:02:09;;;;;;;37.00;26.80;;;20.60;99.90;;;;;;5054548;28;20224;-75
2021/06/05 05:04:34;;;;;;;33.87;26.57;;;20.60;99.90;;;;;;5054069;28;20178;-76
2021/06/05 05:07:01;;;;;;;33.60;24.90;;;20.60;99.90;;;;;;5054769;28;20495;-76
2021/06/05 05:09:27;;;;;;;33.00;24.43;;;20.60;99.90;;;;;;5054603;28;20634;-76
2021/06/05 05:11:53;;;;;;;37.63;26.00;;;20.60;99.90;;;;;;5053828;28;20452;-76
2021/06/05 05:14:19;;;;;;;33.47;25.73;;;20.60;99.90;;;;;;5054628;28;20252;-76
2021/06/05 05:16:45;;;;;;;37.10;25.93;;;20.50;99.90;;;;;;5053500;28;20598;-76
2021/06/05 05:19:11;;;;;;;35.80;26.37;;;20.60;99.90;;;;;;5054254;28;20268;-73
2021/06/05 05:21:37;;;;;;;34.90;24.00;;;20.60;99.90;;;;;;5036009;28;20459;-73
2021/06/05 05:24:04;;;;;;;31.50;22.90;;;20.60;99.90;;;;;;5053075;28;20428;-74
2021/06/05 05:26:30;;;;;;;34.47;26.03;;;20.60;99.90;;;;;;5053987;28;20412;-74
2021/06/05 05:28:56;;;;;;;34.00;24.77;;;20.60;99.90;;;;;;5054184;28;20550;-73
2021/06/05 05:31:26;;;;;;;34.67;26.10;;;20.60;99.90;;;;;;5053960;28;20269;-73
2021/06/05 05:33:52;;;;;;;37.30;27.03;;;20.60;99.90;;;;;;5053572;28;20918;-73
2021/06/05 05:36:38;;;;;;;32.00;25.60;;;20.70;99.90;;;;;;5054244;28;20769;-73
2021/06/05 05:39:10;;;;;;;31.57;24.80;;;20.70;99.90;;;;;;5054367;28;20918;-73
2021/06/05 05:41:37;;;;;;;31.53;25.60;;;20.60;99.90;;;;;;5053249;28;20460;-76
2021/06/05 05:44:03;;;;;;;31.50;24.53;;;20.70;99.90;;;;;;5054082;28;20396;-76
2021/06/05 05:46:29;;;;;;;32.13;25.53;;;20.70;99.90;;;;;;5053902;28;20414;-76
2021/06/05 05:48:56;;;;;;;33.57;26.40;;;20.70;99.90;;;;;;5053363;28;20510;-76
2021/06/05 05:51:23;;;;;;;34.60;25.20;;;20.80;99.90;;;;;;5053999;28;20645;-76
2021/06/05 05:53:50;;;;;;;31.00;25.40;;;20.70;99.90;;;;;;5053431;28;20416;-76
2021/06/05 05:56:17;;;;;;;28.20;23.63;;;20.80;99.90;;;;;;5053566;28;20400;-76
2021/06/05 05:58:47;;;;;;;26.50;23.57;;;20.80;99.90;;;;;;5052932;28;20412;-76
2021/06/05 06:01:15;;;;;;;27.93;25.00;;;20.80;99.90;;;;;;5053672;28;20487;-76
2021/06/05 06:03:40;;;;;;;28.27;23.80;;;20.80;99.90;;;;;;5052987;28;20421;-76
2021/06/05 06:06:07;;;;;;;26.70;22.87;;;20.80;99.90;;;;;;5053706;28;20469;-75
2021/06/05 06:08:34;;;;;;;27.57;24.30;;;20.80;99.90;;;;;;5053471;28;20531;-76
2021/06/05 06:11:00;;;;;;;26.97;23.43;;;20.90;99.90;;;;;;5052332;28;20416;-76
2021/06/05 06:13:26;;;;;;;29.37;23.77;;;20.90;99.90;;;;;;5053704;28;20400;-77
2021/06/05 06:15:52;;;;;;;26.80;23.33;;;20.90;99.90;;;;;;5052785;28;20754;-78
2021/06/05 06:18:18;;;;;;;29.10;23.63;;;20.90;99.90;;;;;;5053607;28;20171;-78
2021/06/05 06:20:50;;;;;;;20.30;18.30;;;20.90;99.90;;;;;;5052521;28;20464;-78
2021/06/05 06:23:21;;;;;;;26.97;23.17;;;21.00;99.90;;;;;;5053390;28;20499;-78
2021/06/05 06:25:50;;;;;;;24.17;21.50;;;21.10;99.90;;;;;;5052861;28;20742;-78
2021/06/05 06:28:18;;;;;;;27.30;23.90;;;21.10;99.90;;;;;;5053547;28;20412;-79
2021/06/05 06:30:44;;;;;;;23.30;19.87;;;21.20;99.90;;;;;;5052643;28;20404;-78
2021/06/05 06:33:12;;;;;;;23.37;20.87;;;21.30;99.90;;;;;;5053359;28;20482;-78
2021/06/05 06:35:39;;;;;;;26.20;23.40;;;21.40;99.90;;;;;;5052312;28;20547;-79
2021/06/05 06:38:12;;;;;;;21.17;19.07;;;21.50;99.90;;;;;;5052997;28;20404;-79
2021/06/05 06:40:39;;;;;;;27.50;24.53;;;21.60;99.90;;;;;;5034359;28;20537;-78
2021/06/05 06:43:07;;;;;;;28.67;25.33;;;21.70;99.90;;;;;;5052978;28;21023;-78
2021/06/05 06:45:33;;;;;;;27.97;25.17;;;21.80;99.90;;;;;;5052679;28;20865;-78
2021/06/05 06:47:59;;;;;;;21.03;18.97;;;21.70;99.90;;;;;;5052997;28;20503;-78
2021/06/05 06:50:27;;;;;;;27.50;24.60;;;21.80;99.90;;;;;;5052926;28;20260;-78
2021/06/05 06:52:53;;;;;;;22.50;20.10;;;21.80;99.90;;;;;;5052014;28;20170;-78
2021/06/05 06:55:23;;;;;;;26.60;23.80;;;21.90;99.90;;;;;;5052765;28;20412;-79
2021/06/05 06:57:49;;;;;;;27.33;24.50;;;21.90;99.90;;;;;;5051932;28;20540;-79
2021/06/05 07:00:24;;;;;;;26.80;24.07;;;21.90;99.90;;;;;;5052627;28;20401;-78
2021/06/05 07:02:49;;;;;;;23.97;21.60;;;21.90;99.90;;;;;;5048573;28;20407;-80
2021/06/05 07:05:15;;;;;;;26.63;24.03;;;21.80;99.90;;;;;;5052566;28;20442;-81
2021/06/05 07:07:41;;;;;;;28.53;25.57;;;21.80;99.90;;;;;;5051739;28;20173;-82
2021/06/05 07:10:09;;;;;;;26.03;23.27;;;21.80;99.90;;;;;;5052207;28;20186;-79
2021/06/05 07:12:35;;;;;;;26.77;23.73;;;21.70;99.90;;;;;;5028017;28;20240;-78
2021/06/05 07:15:00;;;;;;;41.23;35.60;;;21.70;99.90;;;;;;5039419;28;20443;-79
2021/06/05 07:17:26;;;;;;;26.90;23.97;;;21.60;99.90;;;;;;5041713;28;20218;-79
2021/06/05 07:19:52;;;;;;;41.63;34.97;;;21.60;99.90;;;;;;5041195;28;20184;-78
2021/06/05 07:22:17;;;;;;;35.60;31.73;;;21.50;99.90;;;;;;5039519;28;20205;-82
2021/06/05 07:24:43;;;;;;;30.57;25.33;;;21.50;99.90;;;;;;5031282;28;20266;-78
2021/06/05 07:27:09;;;;;;;32.03;26.60;;;21.40;99.90;;;;;;5032417;28;20544;-79
2021/06/05 07:29:35;;;;;;;35.33;30.30;;;21.50;99.90;;;;;;5032140;28;20583;-79
2021/06/05 07:32:04;;;;;;;29.80;26.33;;;21.50;99.90;;;;;;5031865;28;20186;-79
2021/06/05 07:34:33;;;;;;;31.70;26.33;;;21.60;99.90;;;;;;5032283;28;20405;-79
2021/06/05 07:37:04;;;;;;;29.93;26.30;;;21.60;99.90;;;;;;5031798;28;20560;-79
2021/06/05 07:39:30;;;;;;;31.80;27.70;;;21.60;99.90;;;;;;5032352;28;20397;-79
2021/06/05 07:42:00;;;;;;;28.70;24.80;;;21.60;99.90;;;;;;5031553;28;20455;-82
2021/06/05 07:44:28;;;;;;;28.30;24.23;;;21.60;99.90;;;;;;5032117;28;20925;-81
2021/06/05 07:46:57;;;;;;;41.23;36.17;;;21.50;99.90;;;;;;5032884;28;20404;-80
2021/06/05 07:49:29;;;;;;;190.43;128.40;;;21.50;99.90;;;;;;5038669;28;20412;-80
2021/06/05 07:51:55;;;;;;;38.53;33.67;;;21.60;99.90;;;;;;5037685;28;20502;-79
2021/06/05 07:54:21;;;;;;;27.30;23.50;;;21.60;99.90;;;;;;5038856;28;20435;-80
2021/06/05 07:56:50;;;;;;;30.40;23.47;;;21.60;99.90;;;;;;5037941;28;20415;-79
2021/06/05 07:59:22;;;;;;;31.13;24.00;;;21.70;99.90;;;;;;5038637;28;20404;-80
2021/06/05 08:01:49;;;;;;;26.33;22.80;;;21.70;99.90;;;;;;5037832;28;21066;-79
2021/06/05 08:04:17;;;;;;;26.97;22.47;;;21.70;99.90;;;;;;5038757;28;20458;-79
2021/06/05 08:06:43;;;;;;;23.40;20.90;;;21.70;99.90;;;;;;5037757;28;20803;-82
2021/06/05 08:09:09;;;;;;;22.30;19.90;;;21.70;99.90;;;;;;5020775;28;20417;-77
2021/06/05 08:11:35;;;;;;;22.57;19.70;;;21.70;99.90;;;;;;5038615;28;20427;-78
2021/06/05 08:14:01;;;;;;;23.70;21.20;;;21.70;99.90;;;;;;5037741;28;20256;-78
2021/06/05 08:16:27;;;;;;;24.50;21.90;;;21.60;99.90;;;;;;5038362;28;20226;-78
2021/06/05 08:18:53;;;;;;;25.13;22.43;;;21.70;99.90;;;;;;5037719;28;20409;-78
2021/06/05 08:21:20;;;;;;;22.83;20.47;;;21.70;99.90;;;;;;5038180;28;20448;-78
2021/06/05 08:23:47;;;;;;;21.70;19.50;;;21.70;99.90;;;;;;5037590;28;20460;-77
2021/06/05 08:26:18;;;;;;;22.27;19.93;;;21.70;99.90;;;;;;5038378;28;20405;-78
2021/06/05 08:28:44;;;;;;;21.43;19.10;;;21.70;99.90;;;;;;5038193;28;20744;-77
2021/06/05 08:31:12;;;;;;;21.17;19.00;;;21.70;99.90;;;;;;5038734;28;20417;-77
2021/06/05 08:33:39;;;;;;;22.50;20.10;;;21.80;99.90;;;;;;5038041;28;20413;-77
2021/06/05 08:36:11;;;;;;;23.23;20.83;;;21.70;99.90;;;;;;5038625;28;20459;-78
2021/06/05 08:38:38;;;;;;;23.83;21.20;;;21.80;99.90;;;;;;5038742;28;20432;-78
2021/06/05 08:41:19;;;;;;;24.40;21.30;;;21.80;99.90;;;;;;5038286;28;21006;-78
2021/06/05 08:44:03;;;;;;;23.40;20.90;;;21.80;99.90;;;;;;5037932;28;20928;-77
2021/06/05 08:46:35;;;;;;;22.87;20.67;;;21.90;99.90;;;;;;5038530;28;20813;-78
2021/06/05 08:49:03;;;;;;;37.00;32.97;;;21.90;99.90;;;;;;5037932;28;20404;-79
2021/06/05 08:51:48;;;;;;;24.10;21.50;;;21.90;99.90;;;;;;5038062;28;20763;-79
2021/06/05 08:54:29;;;;;;;34.67;30.00;;;22.00;99.90;;;;;;5038524;28;20401;-79
2021/06/05 08:56:57;;;;;;;29.83;25.83;;;22.00;99.90;;;;;;5037994;28;20734;-79
2021/06/05 08:59:24;;;;;;;30.03;25.73;;;22.10;99.90;;;;;;5034819;28;20405;-80
2021/06/05 09:01:51;;;;;;;25.43;22.00;;;22.10;99.90;;;;;;5034412;28;20455;-79
2021/06/05 09:04:20;;;;;;;26.33;23.70;;;22.10;99.90;;;;;;5035392;28;20417;-79
2021/06/05 09:06:56;;;;;;;26.10;22.10;;;22.10;99.90;;;;;;5034722;28;20394;-80
2021/06/05 09:09:35;;;;;;;26.10;20.83;;;22.10;99.90;;;;;;5035410;28;20393;-79
2021/06/05 09:12:02;;;;;;;27.90;25.07;;;22.10;99.90;;;;;;5034604;28;20416;-80
2021/06/05 09:14:28;;;;;;;26.30;22.70;;;22.10;99.90;;;;;;5035162;28;20414;-80
2021/06/05 09:16:55;;;;;;;26.27;22.70;;;22.10;99.90;;;;;;5034424;28;20960;-79
2021/06/05 09:19:28;;;;;;;29.17;23.60;;;22.20;99.90;;;;;;5035008;28;20248;-81
2021/06/05 09:22:16;;;;;;;25.93;23.20;;;22.30;99.90;;;;;;5034330;28;20444;-81
2021/06/05 09:24:52;;;;;;;26.47;22.30;;;22.40;99.90;;;;;;5027789;28;20417;-80
2021/06/05 09:27:18;;;;;;;25.93;23.13;;;22.50;99.90;;;;;;5034921;28;20409;-80
2021/06/05 09:30:02;;;;;;;27.30;23.67;;;22.40;99.90;;;;;;5034235;28;20897;-80
2021/06/05 09:32:43;;;;;;;25.83;23.10;;;22.40;99.90;;;;;;5034700;28;20166;-80
2021/06/05 09:35:10;;;;;;;23.93;21.00;;;22.40;99.90;;;;;;5035037;28;20401;-81
2021/06/05 09:37:38;;;;;;;26.80;23.17;;;22.40;99.90;;;;;;5034666;28;20417;-81
2021/06/05 09:40:24;;;;;;;76.70;68.67;;;22.30;99.90;;;;;;5034006;28;20424;-81
2021/06/05 09:43:16;;;;;;;25.07;22.03;;;22.10;99.90;;;;;;5034231;28;20441;-81
2021/06/05 09:45:45;;;;;;;27.07;24.13;;;22.20;99.90;;;;;;5033920;28;20860;-81
2021/06/05 09:48:32;;;;;;;26.50;23.80;;;22.20;99.90;;;;;;5041938;28;20408;-80
2021/06/05 09:51:05;;;;;;;24.80;22.13;;;22.10;99.90;;;;;;5053852;28;20412;-79
2021/06/05 09:53:34;;;;;;;32.07;27.60;;;22.10;99.90;;;;;;5054355;28;20872;-81
2021/06/05 09:56:19;;;;;;;26.60;23.80;;;22.10;99.90;;;;;;5053967;28;20408;-81
2021/06/05 09:58:46;;;;;;;26.40;23.60;;;22.10;99.90;;;;;;5053578;28;20425;-80
2021/06/05 10:01:21;;;;;;;31.20;28.10;;;22.10;99.90;;;;;;5054131;28;20486;-81
2021/06/05 10:03:54;;;;;;;29.77;26.67;;;22.00;99.90;;;;;;5053342;28;20399;-80
2021/06/05 10:06:41;;;;;;;31.13;27.50;;;22.00;99.90;;;;;;5054233;28;20397;-81
2021/06/05 10:09:32;;;;;;;29.90;26.90;;;22.00;99.90;;;;;;5053753;28;20492;-81
2021/06/05 10:12:03;;;;;;;28.13;25.20;;;22.10;99.90;;;;;;5053485;28;20408;-81
2021/06/05 10:14:59;;;;;;;26.47;23.77;;;22.10;99.90;;;;;;5054012;28;20475;-81
2021/06/05 10:17:48;;;;;;;27.20;24.40;;;22.20;99.90;;;;;;5053972;28;20586;-81
2021/06/05 10:20:22;;;;;;;28.13;25.13;;;22.20;99.90;;;;;;5041902;28;20416;-81
2021/06/05 10:22:55;;;;;;;26.97;24.17;;;22.10;99.90;;;;;;5053250;28;20407;-81
2021/06/05 10:25:33;;;;;;;27.43;24.73;;;22.10;99.90;;;;;;5053478;28;20860;-81
2021/06/05 10:28:09;;;;;;;26.23;23.70;;;22.10;99.90;;;;;;5053131;28;20816;-81
2021/06/05 10:30:54;;;;;;;31.70;27.20;;;22.10;99.90;;;;;;5053417;28;20392;-80
2021/06/05 10:33:49;;;;;;;79.27;62.00;;;22.10;99.90;;;;;;5053313;28;20397;-81
2021/06/05 10:36:25;;;;;;;184.70;150.90;;;22.20;99.90;;;;;;5053512;28;20400;-80
2021/06/05 10:39:00;;;;;;;76.93;62.43;;;22.10;99.90;;;;;;5052920;28;20419;-80
2021/06/05 10:41:34;;;;;;;224.07;195.13;;;22.00;99.90;;;;;;5053501;28;20455;-81
2021/06/05 10:44:02;;;;;;;48.93;41.10;;;22.10;99.90;;;;;;5034988;28;20424;-80
2021/06/05 10:46:48;;;;;;;44.13;38.33;;;21.90;99.90;;;;;;5053270;28;20414;-81
2021/06/05 10:49:31;;;;;;;26.93;24.13;;;22.00;99.90;;;;;;5052939;28;20424;-81
2021/06/05 10:52:16;;;;;;;40.17;35.87;;;22.10;99.90;;;;;;5052652;28;20408;-80
2021/06/05 10:54:50;;;;;;;29.93;25.80;;;22.20;99.90;;;;;;5053270;28;20453;-80
2021/06/05 10:57:19;;;;;;;34.67;30.90;;;22.20;99.90;;;;;;5052983;28;20400;-80
2021/06/05 10:59:44;;;;;;;29.40;26.37;;;22.30;99.90;;;;;;5053112;28;20418;-80
2021/06/05 11:02:49;;;;;;;31.03;27.83;;;22.40;99.90;;;;;;5052346;28;20479;-80
2021/06/05 11:05:18;;;;;;;31.50;27.93;;;22.40;99.90;;;;;;5052417;28;20186;-79
2021/06/05 11:07:45;;;;;;;29.60;26.17;;;22.40;99.90;;;;;;5052811;28;20436;-80
2021/06/05 11:10:32;;;;;;;29.10;26.07;;;22.50;99.90;;;;;;5052111;28;20424;-80
2021/06/05 11:12:58;;;;;;;26.23;23.53;;;22.60;99.90;;;;;;5052102;28;20462;-79
2021/06/05 11:15:50;;;;;;;25.90;23.30;;;22.60;99.90;;;;;;5052835;28;20885;-80
2021/06/05 11:18:23;;;;;;;24.80;22.23;;;22.70;99.90;;;;;;5052869;28;20435;-79
2021/06/05 11:20:49;;;;;;;26.00;23.30;;;22.80;99.90;;;;;;5052159;28;20448;-79
2021/06/05 11:23:17;;;;;;;24.30;21.83;;;22.80;99.90;;;;;;5052115;28;20488;-80
2021/06/05 11:25:46;;;;;;;22.80;20.60;;;22.90;99.90;;;;;;5052687;28;20419;-80
2021/06/05 11:28:45;;;;;;;22.87;20.57;;;22.90;99.90;;;;;;5052019;28;20416;-80
2021/06/05 11:31:41;;;;;;;21.47;19.30;;;23.00;99.90;;;;;;5051934;28;20846;-80
2021/06/05 11:34:10;;;;;;;22.90;20.47;;;23.00;99.90;;;;;;5052002;28;20424;-80
2021/06/05 11:36:36;;;;;;;21.20;18.97;;;23.00;99.90;;;;;;5052512;28;20412;-80
2021/06/05 11:39:10;;;;;;;20.73;18.73;;;23.00;99.90;;;;;;5033902;28;20414;-80
2021/06/05 11:41:43;;;;;;;19.90;17.90;;;23.00;99.90;;;;;;5052760;28;20201;-80
2021/06/05 11:44:34;;;;;;;20.97;18.97;;;22.90;99.90;;;;;;5051891;28;20408;-80
2021/06/05 11:47:22;;;;;;;18.63;16.87;;;22.90;99.90;;;;;;5051906;28;20884;-82
2021/06/05 11:50:07;;;;;;;33.37;28.50;;;22.90;99.90;;;;;;5041377;28;20444;-80
2021/06/05 11:52:36;;;;;;;153.73;136.97;;;23.00;99.90;;;;;;5052018;28;20912;-80
2021/06/05 11:55:17;;;;;;;24.57;22.20;;;23.00;99.90;;;;;;5051723;28;20412;-80
2021/06/05 11:57:51;;;;;;;26.00;23.30;;;23.10;99.90;;;;;;5052431;28;20412;-79
2021/06/05 12:00:31;;;;;;;21.60;19.50;;;23.10;99.90;;;;;;5052228;28;20412;-79
2021/06/05 12:03:02;;;;;;;20.80;18.80;;;23.10;99.90;;;;;;5051716;28;20454;-79
2021/06/05 12:05:42;;;;;;;20.50;18.30;;;23.20;99.90;;;;;;5052311;28;20446;-79
2021/06/05 12:08:24;;;;;;;20.23;18.23;;;23.20;99.90;;;;;;5051713;28;20409;-79
2021/06/05 12:10:52;;;;;;;19.70;17.80;;;23.40;99.90;;;;;;5052286;28;20954;-79
2021/06/05 12:13:33;;;;;;;18.83;16.93;;;23.50;99.90;;;;;;5052151;28;20419;-79
2021/06/05 12:16:20;;;;;;;18.60;16.80;;;23.60;99.90;;;;;;5051292;28;20408;-79
2021/06/05 12:18:48;;;;;;;19.33;17.20;;;23.80;99.90;;;;;;5052299;28;20586;-80
2021/06/05 12:21:29;;;;;;;17.50;15.80;;;23.90;99.90;;;;;;5051424;28;20456;-79
2021/06/05 12:23:56;;;;;;;18.13;16.53;;;24.10;99.90;;;;;;5051514;28;20408;-78
2021/06/05 12:26:25;;;;;;;18.43;16.50;;;24.20;99.90;;;;;;5052045;28;20416;-79
2021/06/05 12:29:06;;;;;;;17.03;15.40;;;24.30;99.90;;;;;;5052118;28;20417;-79
2021/06/05 12:31:36;;;;;;;17.80;16.00;;;24.30;99.10;;;;;;5034258;28;20423;-79
2021/06/05 12:34:09;;;;;;;17.27;15.57;;;24.30;99.10;;;;;;5053941;28;20759;-79
2021/06/05 12:36:41;;;;;;;18.57;16.77;;;24.30;98.40;;;;;;5055841;28;20412;-79
2021/06/05 12:39:13;;;;;;;19.10;17.20;;;24.30;98.70;;;;;;5037341;28;20781;-79
2021/06/05 12:41:41;;;;;;;19.70;17.80;;;24.30;98.60;;;;;;5055903;28;20536;-79
2021/06/05 12:44:08;;;;;;;21.47;19.33;;;24.40;99.90;;;;;;5054714;28;20458;-79